createdAt,value
2023-03-30T00:02:13.083Z,13.27
2023-03-30T00:04:43.437Z,13.26
2023-03-30T00:07:12.393Z,13.12
2023-03-30T00:09:43.041Z,13.20
2023-03-30T00:12:11.798Z,13.12
2023-03-30T00:14:42.483Z,13.13
2023-03-30T00:17:11.366Z,13.27
2023-03-30T00:19:40.599Z,13.18
2023-03-30T00:22:09.862Z,13.08
2023-03-30T00:24:38.334Z,13.05
2023-03-30T00:27:07.121Z,13.05
2023-03-30T00:29:36.012Z,13.00
2023-03-30T00:32:04.985Z,12.99
2023-03-30T00:34:33.723Z,13.03
2023-03-30T00:37:03.210Z,12.94
2023-03-30T00:39:31.779Z,12.97
2023-03-30T00:42:00.671Z,13.03
2023-03-30T00:44:47.685Z,13.01
2023-03-30T00:47:17.029Z,12.90
2023-03-30T00:49:45.882Z,12.78
2023-03-30T00:52:16.407Z,12.80
2023-03-30T00:54:44.994Z,12.78
2023-03-30T00:57:13.854Z,12.67
2023-03-30T00:59:42.893Z,12.70
2023-03-30T01:02:11.572Z,12.62
2023-03-30T01:04:40.560Z,12.62
2023-03-30T01:07:11.708Z,12.77
2023-03-30T01:09:41.035Z,12.69
2023-03-30T01:12:10.612Z,12.86
2023-03-30T01:14:39.199Z,12.76
2023-03-30T01:17:15.293Z,12.87
2023-03-30T01:19:48.737Z,12.97
2023-03-30T01:22:19.034Z,13.18
2023-03-30T01:24:51.052Z,13.24
2023-03-30T01:27:21.970Z,13.32
2023-03-30T01:30:08.843Z,13.37
2023-03-30T01:32:43.117Z,13.43
2023-03-30T01:35:14.537Z,13.45
2023-03-30T01:38:02.757Z,13.45
2023-03-30T01:40:33.448Z,13.62
2023-03-30T01:43:03.714Z,13.64
2023-03-30T01:45:40.042Z,13.57
2023-03-30T01:48:26.238Z,13.47
2023-03-30T01:50:56.452Z,13.40
2023-03-30T01:53:35.590Z,13.28
2023-03-30T01:56:08.158Z,13.33
2023-03-30T01:58:41.087Z,13.36
2023-03-30T02:01:10.861Z,13.27
2023-03-30T02:03:39.893Z,13.32
2023-03-30T02:06:10.732Z,13.23
2023-03-30T02:08:40.422Z,13.30
2023-03-30T02:11:08.968Z,13.34
2023-03-30T02:13:37.447Z,13.29
2023-03-30T02:16:11.829Z,13.32
2023-03-30T02:18:42.284Z,13.24
2023-03-30T02:21:10.939Z,13.41
2023-03-30T02:23:41.159Z,13.34
2023-03-30T02:26:10.602Z,13.43
2023-03-30T02:28:39.392Z,13.45
2023-03-30T02:31:12.929Z,13.27
2023-03-30T02:33:46.943Z,13.12
2023-03-30T02:36:23.923Z,12.89
2023-03-30T02:38:54.439Z,12.76
2023-03-30T02:41:28.497Z,12.80
2023-03-30T02:43:58.883Z,12.79
2023-03-30T02:46:29.223Z,12.82
2023-03-30T02:48:59.663Z,12.91
2023-03-30T02:51:43.503Z,12.90
2023-03-30T02:54:16.345Z,12.94
2023-03-30T02:57:10.764Z,12.94
2023-03-30T02:59:41.412Z,12.83
2023-03-30T03:02:15.399Z,12.67
2023-03-30T03:04:46.293Z,12.56
2023-03-30T03:07:30.726Z,12.46
2023-03-30T03:10:00.191Z,12.33
2023-03-30T03:12:29.238Z,12.35
2023-03-30T03:14:57.778Z,12.23
2023-03-30T03:17:28.676Z,12.20
2023-03-30T03:19:57.219Z,12.13
2023-03-30T03:22:25.796Z,12.07
2023-03-30T03:24:54.325Z,12.07
2023-03-30T03:27:24.604Z,12.06
2023-03-30T03:30:12.411Z,11.98
2023-03-30T03:32:42.912Z,12.00
2023-03-30T03:35:12.262Z,11.96
2023-03-30T03:37:40.838Z,11.92
2023-03-30T03:40:11.792Z,11.87
2023-03-30T03:42:40.703Z,11.94
2023-03-30T03:45:13.778Z,11.96
2023-03-30T03:47:55.926Z,12.11
2023-03-30T03:50:26.406Z,12.29
2023-03-30T03:52:55.323Z,12.20
2023-03-30T03:55:24.260Z,12.14
2023-03-30T03:57:53.586Z,12.21
2023-03-30T04:00:23.236Z,12.32
2023-03-30T04:02:52.985Z,12.31
2023-03-30T04:05:21.541Z,12.12
2023-03-30T04:07:50.503Z,11.98
2023-03-30T04:10:20.830Z,11.86
2023-03-30T04:13:00.345Z,11.62
2023-03-30T04:15:33.627Z,11.37
2023-03-30T04:18:16.133Z,11.21
2023-03-30T04:20:52.155Z,11.11
2023-03-30T04:23:30.138Z,11.09
2023-03-30T04:26:17.839Z,11.00
2023-03-30T04:28:48.251Z,11.02
2023-03-30T04:31:22.847Z,11.02
2023-03-30T04:34:04.366Z,10.97
2023-03-30T04:36:42.371Z,10.90
2023-03-30T04:39:21.476Z,10.88
2023-03-30T04:41:58.177Z,10.87
2023-03-30T04:44:28.944Z,10.90
2023-03-30T04:46:59.264Z,10.85
2023-03-30T04:49:38.686Z,10.85
2023-03-30T04:52:18.115Z,10.78
2023-03-30T04:55:07.116Z,10.84
2023-03-30T04:57:53.782Z,10.85
2023-03-30T05:00:40.390Z,10.84
2023-03-30T05:03:27.443Z,10.85
2023-03-30T05:06:07.477Z,10.74
2023-03-30T05:08:44.336Z,10.73
2023-03-30T05:11:18.141Z,10.64
2023-03-30T05:13:48.358Z,10.63
2023-03-30T05:16:18.623Z,10.63
2023-03-30T05:18:50.805Z,10.74
2023-03-30T05:21:31.633Z,10.81
2023-03-30T05:24:08.614Z,10.90
2023-03-30T05:26:39.024Z,10.90
2023-03-30T05:29:15.811Z,10.94
2023-03-30T05:31:53.201Z,10.89
2023-03-30T05:34:27.117Z,10.92
2023-03-30T05:37:00.146Z,10.92
2023-03-30T05:39:48.801Z,10.89
2023-03-30T05:42:27.877Z,10.93
2023-03-30T05:44:58.208Z,10.96
2023-03-30T05:47:29.058Z,11.02
2023-03-30T05:49:59.368Z,10.99
2023-03-30T05:52:29.596Z,11.00
2023-03-30T05:55:16.551Z,10.93
2023-03-30T05:57:50.268Z,10.89
2023-03-30T06:00:26.280Z,10.74
2023-03-30T06:02:57.540Z,10.67
2023-03-30T06:05:27.532Z,10.61
2023-03-30T06:07:56.222Z,10.69
2023-03-30T06:10:25.013Z,10.67
2023-03-30T06:12:53.898Z,10.65
2023-03-30T06:15:27.233Z,10.63
2023-03-30T06:18:02.049Z,10.55
2023-03-30T06:20:31.329Z,10.45
2023-03-30T06:23:00.322Z,10.43
2023-03-30T06:25:30.132Z,10.62
2023-03-30T06:27:59.234Z,10.73
2023-03-30T06:30:28.323Z,10.78
2023-03-30T06:32:59.219Z,10.90
2023-03-30T06:35:43.531Z,10.89
2023-03-30T06:38:13.399Z,10.96
2023-03-30T06:40:41.953Z,11.12
2023-03-30T06:43:12.300Z,11.16
2023-03-30T06:45:42.614Z,11.35
2023-03-30T06:48:11.509Z,11.86
2023-03-30T06:50:40.742Z,12.09
2023-03-30T06:53:23.373Z,12.50
2023-03-30T06:55:52.781Z,12.87
2023-03-30T06:58:22.064Z,12.63
2023-03-30T07:00:51.113Z,12.42
2023-03-30T07:03:37.976Z,12.26
2023-03-30T07:06:09.671Z,11.89
2023-03-30T07:08:40.301Z,11.78
2023-03-30T07:11:10.475Z,11.67
2023-03-30T07:13:40.570Z,11.67
2023-03-30T07:16:10.065Z,11.74
2023-03-30T07:18:38.768Z,11.76
2023-03-30T07:21:07.452Z,11.78
2023-03-30T07:23:38.121Z,11.74
2023-03-30T07:26:07.038Z,11.74
2023-03-30T07:28:41.777Z,11.77
2023-03-30T07:31:13.356Z,11.80
2023-03-30T07:33:42.999Z,11.86
2023-03-30T07:36:15.495Z,11.91
2023-03-30T07:38:44.328Z,11.76
2023-03-30T07:41:14.183Z,11.78
2023-03-30T07:43:44.038Z,11.75
2023-03-30T07:46:12.677Z,11.74
2023-03-30T07:48:42.969Z,11.78
2023-03-30T07:51:13.567Z,11.81
2023-03-30T07:53:48.078Z,11.92
2023-03-30T07:56:18.243Z,11.80
2023-03-30T07:58:48.869Z,11.84
2023-03-30T08:01:18.487Z,11.93
2023-03-30T08:03:55.052Z,12.20
2023-03-30T08:06:24.231Z,12.41
2023-03-30T08:08:55.199Z,12.35
2023-03-30T08:11:24.035Z,12.50
2023-03-30T08:13:52.551Z,12.53
2023-03-30T08:16:21.341Z,12.41
2023-03-30T08:18:49.903Z,12.23
2023-03-30T08:21:19.757Z,12.20
2023-03-30T08:23:48.614Z,12.26
2023-03-30T08:26:18.393Z,12.22
2023-03-30T08:28:47.186Z,12.20
2023-03-30T08:31:17.637Z,12.33
2023-03-30T08:33:46.718Z,12.52
2023-03-30T08:36:15.452Z,12.70
2023-03-30T08:38:45.624Z,12.80
2023-03-30T08:41:18.861Z,12.91
2023-03-30T08:43:52.058Z,12.73
2023-03-30T08:46:21.152Z,12.64
2023-03-30T08:48:51.719Z,12.35
2023-03-30T08:51:23.406Z,12.42
2023-03-30T08:54:02.067Z,12.30
2023-03-30T08:56:36.966Z,12.25
2023-03-30T08:59:07.257Z,12.45
2023-03-30T09:01:50.026Z,13.23
2023-03-30T09:04:35.553Z,13.35
2023-03-30T09:07:21.000Z,12.96
2023-03-30T09:09:51.781Z,13.21
2023-03-30T09:12:38.991Z,13.16
2023-03-30T09:15:18.030Z,13.08
2023-03-30T09:17:52.233Z,14.02
2023-03-30T09:20:25.109Z,13.05
2023-03-30T09:22:54.384Z,12.72
2023-03-30T09:25:37.203Z,12.58
2023-03-30T09:28:13.943Z,13.05
2023-03-30T09:30:43.633Z,14.44
2023-03-30T09:33:19.537Z,14.57
2023-03-30T09:35:49.907Z,14.40
2023-03-30T09:38:20.269Z,13.71
2023-03-30T09:40:57.121Z,14.49
2023-03-30T09:43:27.553Z,14.22
2023-03-30T09:45:56.175Z,13.55
2023-03-30T09:48:25.022Z,13.58
2023-03-30T09:50:53.608Z,13.40
2023-03-30T09:53:25.422Z,13.38
2023-03-30T09:56:01.070Z,13.51
2023-03-30T09:58:33.912Z,13.79
2023-03-30T10:01:04.082Z,14.00
2023-03-30T10:03:33.058Z,13.89
2023-03-30T10:06:08.190Z,13.33
2023-03-30T10:08:38.704Z,13.69
2023-03-30T10:11:07.834Z,13.78
2023-03-30T10:13:37.733Z,14.15
2023-03-30T10:16:11.053Z,14.55
2023-03-30T10:18:41.690Z,15.21
2023-03-30T10:21:17.874Z,15.79
2023-03-30T10:23:47.705Z,16.84
2023-03-30T10:26:19.425Z,15.92
2023-03-30T10:28:59.773Z,15.43
2023-03-30T10:31:28.522Z,14.88
2023-03-30T10:33:58.295Z,14.49
2023-03-30T10:36:28.514Z,13.74
2023-03-30T10:38:58.887Z,13.81
2023-03-30T10:41:27.382Z,14.26
2023-03-30T10:43:56.252Z,15.69
2023-03-30T10:46:25.634Z,15.99
2023-03-30T10:48:56.235Z,14.57
2023-03-30T10:51:26.376Z,15.38
2023-03-30T10:53:59.219Z,15.39
2023-03-30T10:56:34.306Z,16.57
2023-03-30T10:59:07.812Z,16.49
2023-03-30T11:01:38.201Z,16.30
2023-03-30T11:04:20.487Z,16.29
2023-03-30T11:06:39.917Z,15.95
2023-03-30T11:09:10.319Z,15.21
2023-03-30T11:11:41.146Z,14.68
2023-03-30T11:14:18.012Z,14.30
2023-03-30T11:17:07.847Z,14.24
2023-03-30T11:19:55.509Z,14.38
2023-03-30T11:22:37.711Z,14.17
2023-03-30T11:25:09.519Z,13.98
2023-03-30T11:27:40.010Z,13.93
2023-03-30T11:30:22.574Z,12.89
2023-03-30T11:32:53.329Z,12.29
2023-03-30T11:35:32.748Z,12.19
2023-03-30T11:38:05.864Z,12.18
2023-03-30T11:40:46.690Z,12.28
2023-03-30T11:43:16.931Z,12.36
2023-03-30T11:45:50.509Z,12.34
2023-03-30T11:48:21.088Z,12.33
2023-03-30T11:50:54.456Z,12.43
2023-03-30T11:53:24.801Z,12.48
2023-03-30T11:55:57.883Z,12.49
2023-03-30T11:58:41.224Z,12.94
2023-03-30T12:01:28.022Z,13.70
2023-03-30T12:03:58.617Z,14.06
2023-03-30T12:06:31.178Z,13.80
2023-03-30T12:09:01.564Z,13.62
2023-03-30T12:11:50.631Z,14.04
2023-03-30T12:14:32.764Z,14.29
2023-03-30T12:17:02.944Z,14.15
2023-03-30T12:19:39.789Z,14.09
2023-03-30T12:22:07.828Z,13.79
2023-03-30T12:24:38.189Z,13.59
2023-03-30T12:27:08.501Z,13.46
2023-03-30T12:32:29.351Z,13.62
2023-03-30T12:34:58.817Z,13.73
2023-03-30T12:37:28.578Z,13.97
2023-03-30T12:39:59.018Z,14.03
2023-03-30T12:42:35.173Z,13.77
2023-03-30T12:45:05.814Z,13.66
2023-03-30T12:47:39.641Z,13.47
2023-03-30T12:50:27.089Z,13.46
2023-03-30T12:53:14.046Z,13.60
2023-03-30T12:55:44.441Z,13.52
2023-03-30T12:58:17.476Z,13.44
2023-03-30T13:00:51.200Z,13.38
2023-03-30T13:03:37.816Z,13.57
2023-03-30T13:06:08.105Z,13.56
2023-03-30T13:08:38.534Z,13.49
2023-03-30T13:11:08.933Z,13.61
2023-03-30T13:13:53.517Z,13.76
2023-03-30T13:16:40.392Z,13.80
2023-03-30T13:19:16.627Z,13.74
2023-03-30T13:21:49.055Z,13.55
2023-03-30T13:24:34.358Z,13.44
2023-03-30T13:27:13.726Z,13.44
2023-03-30T13:29:42.495Z,13.43
2023-03-30T13:32:21.938Z,13.53
2023-03-30T13:35:08.102Z,14.26
2023-03-30T13:37:47.624Z,14.42
2023-03-30T13:40:27.356Z,15.28
2023-03-30T13:42:52.373Z,15.42
2023-03-30T13:45:31.926Z,14.89
2023-03-30T13:49:11.251Z,14.51
2023-03-30T13:51:42.604Z,14.25
2023-03-30T13:54:23.992Z,14.24
2023-03-30T13:56:59.591Z,14.00
2023-03-30T13:59:32.244Z,15.12
2023-03-30T14:02:01.560Z,15.27
2023-03-30T14:04:37.811Z,15.21
2023-03-30T14:07:17.408Z,15.21
2023-03-30T14:10:04.961Z,15.42
2023-03-30T14:12:36.503Z,15.92
2023-03-30T14:15:17.830Z,15.86
2023-03-30T14:17:53.035Z,15.17
2023-03-30T14:20:28.807Z,14.60
2023-03-30T14:23:00.464Z,14.70
2023-03-30T14:25:35.341Z,15.35
2023-03-30T14:28:11.269Z,15.16
2023-03-30T14:30:42.449Z,14.75
2023-03-30T14:33:13.840Z,14.50
2023-03-30T14:35:45.993Z,14.46
2023-03-30T14:38:18.528Z,14.50
2023-03-30T14:40:48.191Z,14.19
2023-03-30T14:43:21.101Z,14.09
2023-03-30T14:45:51.549Z,14.52
2023-03-30T14:48:29.917Z,14.18
2023-03-30T14:50:59.992Z,14.71
2023-03-30T14:53:30.270Z,14.55
2023-03-30T14:56:01.050Z,14.47
2023-03-30T14:58:32.312Z,14.54
2023-03-30T15:01:03.673Z,14.36
2023-03-30T15:03:35.022Z,14.27
2023-03-30T15:06:07.328Z,14.25
2023-03-30T15:08:41.106Z,14.14
2023-03-30T15:11:13.135Z,14.08
2023-03-30T15:13:52.560Z,14.09
2023-03-30T15:16:29.718Z,14.29
2023-03-30T15:19:02.160Z,15.18
2023-03-30T15:21:34.080Z,14.90
2023-03-30T15:24:12.133Z,14.90
2023-03-30T15:26:44.631Z,14.72
2023-03-30T15:29:17.066Z,14.97
2023-03-30T15:31:46.769Z,14.74
2023-03-30T15:34:18.301Z,14.42
2023-03-30T15:36:54.376Z,14.34
2023-03-30T15:39:27.930Z,14.73
2023-03-30T15:42:01.522Z,14.73
2023-03-30T15:44:32.727Z,14.53
2023-03-30T15:47:02.733Z,14.54
2023-03-30T15:49:37.981Z,14.36
2023-03-30T15:52:10.761Z,14.52
2023-03-30T15:54:46.089Z,15.07
2023-03-30T15:57:27.313Z,14.42
2023-03-30T16:00:02.263Z,14.51
2023-03-30T16:02:41.281Z,14.68
2023-03-30T16:05:22.712Z,14.78
2023-03-30T16:07:52.062Z,14.22
2023-03-30T16:10:27.388Z,14.59
2023-03-30T16:12:57.584Z,14.63
2023-03-30T16:15:29.577Z,14.05
2023-03-30T16:17:58.930Z,14.27
2023-03-30T16:20:31.282Z,14.61
2023-03-30T16:23:00.639Z,14.39
2023-03-30T16:25:44.262Z,14.04
2023-03-30T16:28:01.483Z,13.81
2023-03-30T16:30:36.427Z,13.86
2023-03-30T16:33:06.413Z,14.15
2023-03-30T16:35:36.254Z,13.89
2023-03-30T16:38:05.571Z,13.68
2023-03-30T16:40:42.752Z,13.62
2023-03-30T16:43:11.525Z,13.66
2023-03-30T16:45:41.084Z,13.70
2023-03-30T16:48:15.011Z,13.74
2023-03-30T16:50:46.656Z,13.69
2023-03-30T16:53:16.064Z,13.51
2023-03-30T16:55:45.970Z,13.35
2023-03-30T16:58:16.363Z,13.27
2023-03-30T17:00:54.372Z,13.23
2023-03-30T17:03:23.606Z,13.25
2023-03-30T17:05:53.059Z,13.39
2023-03-30T17:08:24.543Z,13.06
2023-03-30T17:10:56.647Z,12.90
2023-03-30T17:13:26.005Z,12.77
2023-03-30T17:15:55.413Z,12.76
2023-03-30T17:18:25.616Z,12.76
2023-03-30T17:20:56.703Z,12.69
2023-03-30T17:23:28.968Z,12.65
2023-03-30T17:26:00.151Z,12.58
2023-03-30T17:28:32.545Z,12.52
2023-03-30T17:31:04.449Z,12.51
2023-03-30T17:33:35.539Z,12.49
2023-03-30T17:36:13.689Z,12.50
2023-03-30T17:38:43.847Z,12.51
2023-03-30T17:41:14.312Z,12.50
2023-03-30T17:43:44.476Z,12.46
2023-03-30T17:46:15.027Z,12.51
2023-03-30T17:48:44.557Z,12.50
2023-03-30T17:51:13.916Z,12.45
2023-03-30T17:53:43.246Z,12.51
2023-03-30T17:56:14.032Z,12.46
2023-03-30T17:58:43.817Z,12.38
2023-03-30T18:01:13.841Z,12.31
2023-03-30T18:03:44.828Z,12.23
2023-03-30T18:06:14.501Z,12.24
2023-03-30T18:08:44.186Z,12.13
2023-03-30T18:11:13.595Z,12.19
2023-03-30T18:13:42.903Z,12.26
2023-03-30T18:16:13.078Z,12.30
2023-03-30T18:18:42.507Z,12.31
2023-03-30T18:21:12.281Z,12.30
2023-03-30T18:23:42.109Z,12.30
2023-03-30T18:26:13.470Z,12.25
2023-03-30T18:28:44.284Z,12.31
2023-03-30T18:31:14.023Z,12.28
2023-03-30T18:33:43.328Z,12.29
2023-03-30T18:36:13.652Z,12.21
2023-03-30T18:38:43.050Z,12.13
2023-03-30T18:41:15.414Z,12.11
2023-03-30T18:43:44.697Z,12.08
2023-03-30T18:46:14.743Z,11.96
2023-03-30T18:48:44.112Z,11.89
2023-03-30T18:51:13.731Z,11.80
2023-03-30T18:53:43.233Z,11.75
2023-03-30T18:56:14.347Z,11.79
2023-03-30T18:58:43.929Z,11.75
2023-03-30T19:01:13.797Z,11.84
2023-03-30T19:03:45.040Z,11.82
2023-03-30T19:06:18.342Z,11.63
2023-03-30T19:08:47.888Z,11.58
2023-03-30T19:11:20.175Z,11.59
2023-03-30T19:13:50.040Z,11.49
2023-03-30T19:16:20.195Z,11.59
2023-03-30T19:18:49.841Z,11.57
2023-03-30T19:21:19.540Z,11.49
2023-03-30T19:23:50.077Z,11.44
2023-03-30T19:26:19.355Z,11.39
2023-03-30T19:28:49.074Z,11.30
2023-03-30T19:31:18.324Z,11.20
2023-03-30T19:33:47.970Z,11.17
2023-03-30T19:36:17.221Z,11.14
2023-03-30T19:38:46.543Z,11.09
2023-03-30T19:41:16.381Z,11.11
2023-03-30T19:43:45.770Z,11.03
2023-03-30T19:46:15.084Z,11.02
2023-03-30T19:48:44.420Z,10.92
2023-03-30T19:51:13.701Z,10.88
2023-03-30T19:53:43.031Z,10.87
2023-03-30T19:56:12.781Z,10.80
2023-03-30T19:58:42.225Z,10.77
2023-03-30T20:01:11.712Z,10.86
2023-03-30T20:03:41.251Z,10.94
2023-03-30T20:06:13.904Z,10.96
2023-03-30T20:08:43.809Z,10.89
2023-03-30T20:11:13.826Z,10.87
2023-03-30T20:13:44.714Z,10.79
2023-03-30T20:16:17.248Z,10.62
2023-03-30T20:18:47.351Z,10.65
2023-03-30T20:21:18.723Z,10.63
2023-03-30T20:23:48.298Z,10.59
2023-03-30T20:26:19.463Z,10.49
2023-03-30T20:28:48.909Z,10.44
2023-03-30T20:31:18.901Z,10.31
2023-03-30T20:33:48.361Z,10.29
2023-03-30T20:36:17.665Z,10.20
2023-03-30T20:38:47.171Z,10.12
2023-03-30T20:41:17.781Z,9.99
2023-03-30T20:43:56.272Z,10.04
2023-03-30T20:46:20.190Z,10.00
2023-03-30T20:48:59.213Z,10.03
2023-03-30T20:51:29.986Z,10.11
2023-03-30T20:54:02.068Z,10.03
2023-03-30T20:56:34.727Z,10.06
2023-03-30T20:59:13.028Z,10.03
2023-03-30T21:01:47.388Z,10.06
2023-03-30T21:04:20.570Z,10.15
2023-03-30T21:06:59.358Z,10.06
2023-03-30T21:09:32.643Z,9.96
2023-03-30T21:12:08.556Z,9.93
2023-03-30T21:14:42.888Z,9.86
2023-03-30T21:17:14.595Z,9.90
2023-03-30T21:19:45.005Z,9.87
2023-03-30T21:22:14.463Z,9.86
2023-03-30T21:24:45.391Z,9.82
2023-03-30T21:27:16.872Z,9.86
2023-03-30T21:29:47.780Z,9.90
2023-03-30T21:32:17.321Z,9.89
2023-03-30T21:34:46.805Z,9.81
2023-03-30T21:37:16.228Z,9.69
2023-03-30T21:39:46.763Z,9.69
2023-03-30T21:42:17.919Z,9.63
2023-03-30T21:45:12.162Z,9.45
2023-03-30T21:47:41.886Z,9.40
2023-03-30T21:50:12.166Z,9.33
2023-03-30T21:52:41.575Z,9.37
2023-03-30T21:55:11.240Z,9.36
2023-03-30T21:57:40.514Z,9.34
2023-03-30T22:00:11.651Z,9.39
2023-03-30T22:02:43.949Z,9.35
2023-03-30T22:05:13.318Z,9.36
2023-03-30T22:07:42.659Z,9.32
2023-03-30T22:10:12.497Z,9.39
2023-03-30T22:12:41.871Z,9.36
2023-03-30T22:15:11.922Z,9.36
2023-03-30T22:17:45.800Z,9.32
2023-03-30T22:20:16.898Z,9.30
2023-03-30T22:22:46.484Z,9.31
2023-03-30T22:25:18.099Z,9.34
2023-03-30T22:27:47.530Z,9.48
2023-03-30T22:30:17.426Z,9.60
2023-03-30T22:32:46.948Z,9.70
2023-03-30T22:35:16.378Z,9.79
2023-03-30T22:37:45.670Z,9.89
2023-03-30T22:40:15.559Z,9.88
2023-03-30T22:42:44.862Z,9.86
2023-03-30T22:45:15.768Z,9.82
2023-03-30T22:47:45.444Z,9.79
2023-03-30T22:50:14.934Z,9.90
2023-03-30T22:52:44.544Z,9.95
2023-03-30T22:55:14.190Z,10.01
2023-03-30T22:57:43.545Z,10.08
2023-03-30T23:00:15.656Z,10.10
2023-03-30T23:02:45.447Z,10.10
2023-03-30T23:05:15.165Z,10.07
2023-03-30T23:07:45.993Z,10.08
2023-03-30T23:10:17.909Z,10.10
2023-03-30T23:12:47.549Z,10.10
2023-03-30T23:15:18.622Z,10.14
2023-03-30T23:17:47.965Z,10.15
2023-03-30T23:20:18.112Z,10.15
2023-03-30T23:22:49.219Z,10.13
2023-03-30T23:25:18.658Z,10.10
2023-03-30T23:27:48.227Z,10.09
2023-03-30T23:30:17.763Z,10.13
2023-03-30T23:32:47.188Z,10.12
2023-03-30T23:35:16.588Z,10.14
2023-03-30T23:37:46.186Z,10.09
2023-03-30T23:40:16.204Z,10.10
2023-03-30T23:42:45.554Z,10.07
2023-03-30T23:45:15.052Z,10.06
2023-03-30T23:47:44.509Z,10.05
2023-03-30T23:50:13.785Z,10.09
2023-03-30T23:52:43.046Z,10.07
2023-03-30T23:55:12.868Z,10.07
2023-03-30T23:57:42.148Z,10.08
